Time;durP1;ratioP1;P1;durP2;ratioP2;P2;SDS_P1;SDS_P2;PMS_P1;PMS_P2;Temp;Humidity;BMP_temperature;BMP_pressure;BME280_temperature;BME280_humidity;BME280_pressure;Samples;Min_cycle;Max_cycle;Signal;HPM_P1;HPM_P2
2021/08/19 00:02:13;;;;;;;7.93;7.33;;;16.30;99.90;;;;;;4929845;29;20295;-75
2021/08/19 00:04:40;;;;;;;8.03;7.53;;;16.20;99.90;;;;;;4930609;29;20731;-75
2021/08/19 00:07:07;;;;;;;7.63;7.13;;;16.10;99.90;;;;;;4930245;29;20221;-76
2021/08/19 00:09:35;;;;;;;7.97;7.47;;;16.10;99.90;;;;;;4931952;29;20230;-75
2021/08/19 00:12:01;;;;;;;9.20;8.60;;;16.00;99.90;;;;;;4931168;29;20668;-75
2021/08/19 00:14:28;;;;;;;6.03;5.60;;;16.00;99.90;;;;;;4933731;29;20218;-75
2021/08/19 00:16:56;;;;;;;3.27;2.97;;;15.90;99.90;;;;;;4929950;29;20228;-75
2021/08/19 00:19:23;;;;;;;3.70;2.90;;;15.90;99.90;;;;;;4926967;29;20195;-76
2021/08/19 00:21:50;;;;;;;3.10;2.80;;;15.90;99.90;;;;;;4929326;29;20217;-76
2021/08/19 00:24:17;;;;;;;3.40;3.10;;;15.90;99.90;;;;;;4924740;29;20216;-76
2021/08/19 00:26:43;;;;;;;3.27;2.80;;;16.00;99.90;;;;;;4931372;29;20630;-76
2021/08/19 00:29:10;;;;;;;4.37;4.03;;;16.00;99.90;;;;;;4929521;29;20209;-76
2021/08/19 00:31:37;;;;;;;3.80;3.50;;;16.00;99.90;;;;;;4931945;29;20673;-75
2021/08/19 00:34:05;;;;;;;5.60;5.13;;;16.00;99.90;;;;;;4931514;29;20290;-76
2021/08/19 00:36:32;;;;;;;5.10;3.87;;;16.10;99.90;;;;;;4926859;29;20795;-76
2021/08/19 00:39:00;;;;;;;4.87;3.87;;;16.10;99.90;;;;;;4924466;29;20257;-75
2021/08/19 00:41:27;;;;;;;3.93;3.60;;;16.10;99.90;;;;;;4928946;29;20724;-75
2021/08/19 00:43:54;;;;;;;4.00;3.70;;;16.20;99.90;;;;;;4932498;29;20282;-75
2021/08/19 00:46:26;;;;;;;5.10;3.80;;;16.20;99.90;;;;;;4930484;29;20202;-76
2021/08/19 00:48:54;;;;;;;4.10;3.70;;;16.20;99.90;;;;;;4932855;29;20214;-76
2021/08/19 00:51:22;;;;;;;4.30;3.90;;;16.30;99.90;;;;;;4931399;29;20202;-75
2021/08/19 00:53:49;;;;;;;4.10;3.80;;;16.30;99.90;;;;;;4926563;29;20218;-76
2021/08/19 00:56:16;;;;;;;4.20;3.90;;;16.40;99.90;;;;;;4929958;29;20341;-76
2021/08/19 00:58:44;;;;;;;4.20;3.90;;;16.40;99.90;;;;;;4930047;29;20226;-75
2021/08/19 01:01:11;;;;;;;3.70;3.40;;;16.50;99.90;;;;;;4928304;29;20206;-75
2021/08/19 01:03:39;;;;;;;4.03;3.83;;;16.50;99.90;;;;;;4924579;29;20276;-75
2021/08/19 01:06:06;;;;;;;4.07;3.77;;;16.50;99.90;;;;;;4925237;29;20695;-76
2021/08/19 01:08:35;;;;;;;4.37;3.97;;;16.50;99.90;;;;;;4925386;29;20248;-75
2021/08/19 01:11:04;;;;;;;4.33;3.93;;;16.50;99.90;;;;;;4932609;29;20206;-76
2021/08/19 01:13:32;;;;;;;4.20;3.90;;;16.60;99.90;;;;;;4932121;29;20217;-76
2021/08/19 01:15:59;;;;;;;4.23;3.90;;;16.60;99.90;;;;;;4923439;29;20238;-76
2021/08/19 01:18:25;;;;;;;3.77;3.50;;;16.60;99.90;;;;;;4931551;29;20423;-76
2021/08/19 01:20:52;;;;;;;4.30;3.73;;;16.60;99.90;;;;;;4934476;29;20210;-75
2021/08/19 01:23:19;;;;;;;3.70;3.47;;;16.60;99.90;;;;;;4929227;29;20223;-75
2021/08/19 01:25:47;;;;;;;4.03;3.73;;;16.60;99.90;;;;;;4934342;29;20214;-75
2021/08/19 01:28:15;;;;;;;3.87;3.57;;;16.60;99.90;;;;;;4930411;29;20620;-76
2021/08/19 01:30:42;;;;;;;3.53;3.30;;;16.60;99.90;;;;;;4928234;29;20209;-76
2021/08/19 01:33:09;;;;;;;3.83;3.53;;;16.60;99.90;;;;;;4929382;29;20196;-76
2021/08/19 01:35:36;;;;;;;4.17;3.60;;;16.60;99.90;;;;;;4928416;29;20227;-76
2021/08/19 01:38:03;;;;;;;3.57;3.30;;;16.60;99.90;;;;;;4931092;29;20702;-76
2021/08/19 01:40:29;;;;;;;3.67;3.37;;;16.60;99.90;;;;;;4931581;29;20204;-75
2021/08/19 01:42:56;;;;;;;3.70;3.47;;;16.60;99.90;;;;;;4933327;29;20270;-76
2021/08/19 01:45:24;;;;;;;3.80;3.50;;;16.60;99.90;;;;;;4926886;29;20207;-75
2021/08/19 01:47:51;;;;;;;4.10;3.80;;;16.60;99.90;;;;;;4926672;29;20261;-75
2021/08/19 01:50:18;;;;;;;3.60;3.30;;;16.60;99.90;;;;;;4924509;29;20270;-75
2021/08/19 01:52:45;;;;;;;2.80;2.60;;;16.60;99.90;;;;;;4921999;29;20189;-76
2021/08/19 01:55:12;;;;;;;3.57;3.27;;;16.60;99.90;;;;;;4929074;29;20223;-75
2021/08/19 01:57:39;;;;;;;3.33;3.13;;;16.60;99.90;;;;;;4929426;29;20260;-76
2021/08/19 02:00:07;;;;;;;3.20;3.00;;;16.60;99.90;;;;;;4923621;29;20214;-76
2021/08/19 02:02:37;;;;;;;3.43;3.13;;;16.60;99.90;;;;;;4927500;29;20210;-75
2021/08/19 02:05:04;;;;;;;3.27;2.93;;;16.60;99.90;;;;;;4933103;29;20219;-75
2021/08/19 02:07:31;;;;;;;3.40;3.10;;;16.60;99.90;;;;;;4931907;29;20551;-76
2021/08/19 02:09:58;;;;;;;3.73;3.43;;;16.60;99.90;;;;;;4927326;29;20298;-75
2021/08/19 02:12:24;;;;;;;3.47;3.27;;;16.60;99.90;;;;;;4927513;29;20736;-76
2021/08/19 02:14:51;;;;;;;3.50;3.30;;;16.60;99.90;;;;;;4927638;29;20710;-76
2021/08/19 02:17:18;;;;;;;3.10;2.90;;;16.60;99.90;;;;;;4930020;29;20545;-76
2021/08/19 02:19:46;;;;;;;3.00;2.80;;;16.60;99.90;;;;;;4935077;29;20697;-76
2021/08/19 02:22:13;;;;;;;3.60;3.30;;;16.70;99.90;;;;;;4931674;29;20272;-76
2021/08/19 02:24:40;;;;;;;2.73;2.63;;;16.70;99.90;;;;;;4931168;29;20230;-76
2021/08/19 02:27:06;;;;;;;2.90;2.70;;;16.70;99.90;;;;;;4934472;29;20214;-76
2021/08/19 02:29:33;;;;;;;2.90;2.70;;;16.60;99.90;;;;;;4930467;29;20199;-76
2021/08/19 02:32:00;;;;;;;3.20;3.00;;;16.70;99.90;;;;;;4927171;29;20228;-76
2021/08/19 02:34:27;;;;;;;3.10;2.90;;;16.70;99.90;;;;;;4928411;29;20601;-75
2021/08/19 02:36:55;;;;;;;2.83;2.63;;;16.60;99.90;;;;;;4931739;29;20255;-76
2021/08/19 02:39:22;;;;;;;2.90;2.70;;;16.60;99.90;;;;;;4927957;29;20251;-76
2021/08/19 02:41:48;;;;;;;2.67;2.40;;;16.60;99.90;;;;;;4938541;29;20210;-77
2021/08/19 02:44:15;;;;;;;2.80;2.60;;;16.60;99.90;;;;;;4934322;29;20253;-77
2021/08/19 02:46:42;;;;;;;3.27;2.67;;;16.60;99.90;;;;;;4928798;29;20752;-78
2021/08/19 02:49:09;;;;;;;2.70;2.50;;;16.60;99.90;;;;;;4929413;29;20675;-78
2021/08/19 02:51:36;;;;;;;2.53;2.33;;;16.60;99.90;;;;;;4935393;29;20754;-77
2021/08/19 02:54:04;;;;;;;2.60;2.40;;;16.60;99.90;;;;;;4923932;29;20634;-79
2021/08/19 02:56:30;;;;;;;2.60;2.40;;;16.60;99.90;;;;;;4935351;29;20246;-77
2021/08/19 02:58:57;;;;;;;2.57;2.37;;;16.60;99.90;;;;;;4929794;29;20655;-76
2021/08/19 03:01:24;;;;;;;2.17;2.07;;;16.60;99.90;;;;;;4925245;29;20261;-75
2021/08/19 03:03:51;;;;;;;2.40;2.30;;;16.60;99.90;;;;;;4929502;29;20221;-76
2021/08/19 03:06:17;;;;;;;2.30;2.20;;;16.60;99.90;;;;;;4929834;29;20215;-76
2021/08/19 03:08:44;;;;;;;2.47;2.27;;;16.60;99.90;;;;;;4928436;29;20198;-76
2021/08/19 03:11:12;;;;;;;3.27;2.30;;;16.60;99.90;;;;;;4930821;29;20265;-76
2021/08/19 03:13:39;;;;;;;2.00;1.90;;;16.60;99.90;;;;;;4931520;29;20278;-76
2021/08/19 03:16:06;;;;;;;2.20;2.10;;;16.60;99.90;;;;;;4927398;29;20200;-76
2021/08/19 03:18:33;;;;;;;2.40;2.20;;;16.60;99.90;;;;;;4926632;29;20207;-76
2021/08/19 03:21:00;;;;;;;2.10;2.00;;;16.60;99.90;;;;;;4925754;29;20206;-76
2021/08/19 03:23:27;;;;;;;2.17;2.07;;;16.60;99.90;;;;;;4917085;29;20599;-76
2021/08/19 03:25:54;;;;;;;2.00;1.90;;;16.60;99.90;;;;;;4932492;29;20258;-76
2021/08/19 03:28:23;;;;;;;2.20;2.03;;;16.60;99.90;;;;;;4933407;29;20620;-76
2021/08/19 03:30:50;;;;;;;2.40;2.30;;;16.60;99.90;;;;;;4936382;29;20266;-76
2021/08/19 03:33:17;;;;;;;1.90;1.80;;;16.50;99.90;;;;;;4932579;29;20217;-76
2021/08/19 03:35:44;;;;;;;2.27;2.10;;;16.50;99.90;;;;;;4937871;29;20291;-76
2021/08/19 03:38:11;;;;;;;2.17;2.07;;;16.50;99.90;;;;;;4937771;29;20207;-76
2021/08/19 03:40:38;;;;;;;2.20;2.00;;;16.50;99.90;;;;;;4931402;29;20219;-75
2021/08/19 03:43:05;;;;;;;2.10;2.00;;;16.50;99.90;;;;;;4936949;29;20617;-76
2021/08/19 03:45:33;;;;;;;2.33;2.13;;;16.50;99.90;;;;;;4931727;29;20253;-76
2021/08/19 03:48:00;;;;;;;2.13;2.03;;;16.50;99.90;;;;;;4923026;29;20634;-76
2021/08/19 03:50:28;;;;;;;2.20;2.00;;;16.40;99.90;;;;;;4931998;29;20199;-77
2021/08/19 03:52:55;;;;;;;2.17;1.90;;;16.40;99.90;;;;;;4932165;29;20276;-77
2021/08/19 03:55:22;;;;;;;2.00;1.90;;;16.40;99.90;;;;;;4926059;29;20240;-77
2021/08/19 03:57:48;;;;;;;1.90;1.80;;;16.40;99.90;;;;;;4934774;29;20756;-77
2021/08/19 04:00:16;;;;;;;2.17;2.07;;;16.40;99.90;;;;;;4934690;29;20276;-77
2021/08/19 04:02:46;;;;;;;2.00;1.90;;;16.40;99.90;;;;;;4936765;29;20211;-77
2021/08/19 04:05:13;;;;;;;2.00;1.90;;;16.40;99.90;;;;;;4935084;29;20713;-76
2021/08/19 04:07:40;;;;;;;2.00;1.90;;;16.50;99.90;;;;;;4932392;29;20203;-77
2021/08/19 04:10:09;;;;;;;1.93;1.83;;;16.50;99.90;;;;;;4931665;29;20637;-77
2021/08/19 04:12:36;;;;;;;2.00;1.90;;;16.40;99.90;;;;;;4935484;29;20199;-77
2021/08/19 04:15:03;;;;;;;2.10;2.00;;;16.40;99.90;;;;;;4937986;29;20227;-77
2021/08/19 04:17:30;;;;;;;2.17;2.07;;;16.40;99.90;;;;;;4933336;29;20210;-77
2021/08/19 04:19:58;;;;;;;3.53;2.10;;;16.50;99.90;;;;;;4927806;29;20263;-77
2021/08/19 04:22:25;;;;;;;2.50;2.30;;;16.50;99.90;;;;;;4933656;29;20241;-77
2021/08/19 04:24:52;;;;;;;2.30;2.10;;;16.40;99.90;;;;;;4934477;29;20278;-77
2021/08/19 04:27:18;;;;;;;2.30;2.20;;;16.50;99.90;;;;;;4937472;29;20206;-79
2021/08/19 04:29:46;;;;;;;2.30;2.10;;;16.50;99.90;;;;;;4937600;29;20251;-78
2021/08/19 04:32:12;;;;;;;1.83;1.80;;;16.50;99.90;;;;;;4932496;29;20296;-78
2021/08/19 04:34:40;;;;;;;2.30;2.20;;;16.50;99.90;;;;;;4931732;29;20225;-79
2021/08/19 04:37:08;;;;;;;2.47;2.30;;;16.50;99.90;;;;;;4936262;29;20204;-77
2021/08/19 04:39:35;;;;;;;2.20;2.00;;;16.50;99.90;;;;;;4930146;29;20192;-76
2021/08/19 04:42:02;;;;;;;2.20;2.10;;;16.50;99.90;;;;;;4919914;29;20210;-77
2021/08/19 04:44:29;;;;;;;2.00;1.90;;;16.50;99.90;;;;;;4936159;29;20237;-78
2021/08/19 04:46:55;;;;;;;2.47;2.27;;;16.50;99.90;;;;;;4939480;29;20199;-77
2021/08/19 04:49:23;;;;;;;2.40;2.17;;;16.50;99.90;;;;;;4935792;29;20201;-77
2021/08/19 04:51:49;;;;;;;2.10;2.00;;;16.50;99.90;;;;;;4937974;29;20613;-78
2021/08/19 04:54:18;;;;;;;2.17;2.07;;;16.50;99.90;;;;;;4939566;29;20215;-76
2021/08/19 04:56:44;;;;;;;2.30;2.20;;;16.50;99.90;;;;;;4934541;29;20210;-78
2021/08/19 04:59:11;;;;;;;2.00;1.90;;;16.50;99.90;;;;;;4939350;29;20211;-77
2021/08/19 05:01:39;;;;;;;2.23;2.13;;;16.50;99.90;;;;;;4934635;29;20210;-77
2021/08/19 05:04:06;;;;;;;2.00;1.90;;;16.50;99.90;;;;;;4929131;29;20226;-78
2021/08/19 05:06:34;;;;;;;2.13;2.03;;;16.60;99.90;;;;;;4925458;29;20208;-76
2021/08/19 05:09:02;;;;;;;2.20;2.07;;;16.60;99.90;;;;;;4933291;29;20265;-77
2021/08/19 05:11:30;;;;;;;2.20;2.10;;;16.60;99.90;;;;;;4932786;29;20299;-77
2021/08/19 05:13:59;;;;;;;2.30;2.20;;;16.60;99.90;;;;;;4936472;29;20599;-78
2021/08/19 05:16:26;;;;;;;2.20;2.10;;;16.60;99.90;;;;;;4932508;29;20618;-77
2021/08/19 05:18:53;;;;;;;2.20;2.10;;;16.60;99.90;;;;;;4933831;29;20277;-75
2021/08/19 05:21:20;;;;;;;2.30;2.20;;;16.70;99.90;;;;;;4933682;29;20200;-80
2021/08/19 05:23:47;;;;;;;2.23;2.03;;;16.70;99.90;;;;;;4928552;29;20222;-81
2021/08/19 05:26:14;;;;;;;2.60;2.30;;;16.80;99.90;;;;;;4936194;29;20632;-78
2021/08/19 05:28:48;;;;;;;2.10;2.00;;;16.90;99.90;;;;;;4927226;29;20205;-77
2021/08/19 05:31:16;;;;;;;2.30;2.20;;;16.90;99.90;;;;;;4932248;29;20198;-77
2021/08/19 05:33:42;;;;;;;2.57;2.37;;;16.80;99.90;;;;;;4931672;29;20735;-77
2021/08/19 05:36:09;;;;;;;2.30;2.20;;;16.90;99.90;;;;;;4928780;29;20215;-77
2021/08/19 05:38:36;;;;;;;3.00;2.80;;;16.80;99.90;;;;;;4924414;29;20215;-77
2021/08/19 05:41:03;;;;;;;2.50;2.30;;;16.80;99.90;;;;;;4935128;29;20237;-77
2021/08/19 05:43:30;;;;;;;2.20;2.10;;;16.90;99.90;;;;;;4934146;29;20227;-78
2021/08/19 05:45:58;;;;;;;2.37;2.27;;;16.90;99.90;;;;;;4936957;29;20246;-79
2021/08/19 05:48:25;;;;;;;2.17;2.03;;;16.90;99.90;;;;;;4930726;29;20223;-78
2021/08/19 05:50:52;;;;;;;2.30;2.20;;;16.90;99.90;;;;;;4962510;23;20234;-79
2021/08/19 05:53:19;;;;;;;2.20;2.00;;;17.00;99.90;;;;;;4944521;28;20683;-77
2021/08/19 05:55:46;;;;;;;2.30;2.20;;;17.00;99.90;;;;;;4948327;28;20202;-78
2021/08/19 05:58:14;;;;;;;2.23;2.13;;;17.00;99.90;;;;;;4943531;28;20213;-79
2021/08/19 06:00:40;;;;;;;2.10;2.00;;;17.00;99.90;;;;;;4947107;28;20235;-77
2021/08/19 06:03:09;;;;;;;2.30;2.10;;;17.10;99.90;;;;;;4954223;28;20208;-78
2021/08/19 06:05:38;;;;;;;2.33;2.23;;;17.10;99.90;;;;;;4939096;28;20255;-78
2021/08/19 06:08:05;;;;;;;2.27;2.17;;;17.10;99.90;;;;;;4928103;29;20308;-78
2021/08/19 06:10:32;;;;;;;2.47;2.27;;;17.10;99.90;;;;;;4946708;28;20280;-78
2021/08/19 06:12:59;;;;;;;2.30;2.20;;;17.20;99.90;;;;;;4941665;28;20561;-78
2021/08/19 06:15:26;;;;;;;2.00;1.90;;;17.20;99.90;;;;;;4932536;28;20198;-78
2021/08/19 06:17:52;;;;;;;3.40;2.47;;;17.20;99.90;;;;;;4934322;29;20216;-77
2021/08/19 06:20:20;;;;;;;2.10;2.00;;;17.20;99.90;;;;;;4943472;28;20743;-78
2021/08/19 06:22:47;;;;;;;2.70;2.20;;;17.20;99.90;;;;;;4937676;29;20213;-79
2021/08/19 06:25:14;;;;;;;2.33;2.23;;;17.30;99.90;;;;;;4928081;29;20268;-78
2021/08/19 06:27:41;;;;;;;2.33;2.23;;;17.30;99.90;;;;;;4932729;29;20209;-78
2021/08/19 06:30:09;;;;;;;2.23;2.10;;;17.30;99.90;;;;;;4938409;29;20204;-78
2021/08/19 06:32:36;;;;;;;2.50;2.30;;;17.40;99.90;;;;;;4932812;29;20279;-79
2021/08/19 06:35:03;;;;;;;3.77;3.47;;;17.50;99.90;;;;;;4934704;29;20253;-78
2021/08/19 06:37:31;;;;;;;2.27;2.17;;;17.50;99.90;;;;;;4937945;29;20205;-78
2021/08/19 06:39:58;;;;;;;6.00;2.63;;;17.50;99.90;;;;;;4935210;29;20203;-79
2021/08/19 06:42:25;;;;;;;21.73;6.73;;;17.50;99.90;;;;;;4941978;29;20265;-80
2021/08/19 06:44:52;;;;;;;8.60;4.90;;;17.60;99.90;;;;;;4929389;29;20287;-80
2021/08/19 06:47:18;;;;;;;5.10;4.23;;;17.60;99.90;;;;;;4932925;29;20258;-79
2021/08/19 06:49:46;;;;;;;3.77;3.07;;;17.60;99.90;;;;;;4927008;29;20298;-79
2021/08/19 06:52:13;;;;;;;5.00;4.70;;;17.60;99.90;;;;;;4939238;29;20265;-79
2021/08/19 06:54:41;;;;;;;3.70;3.40;;;17.70;99.90;;;;;;4942370;29;20582;-80
2021/08/19 06:57:08;;;;;;;5.40;5.10;;;17.70;99.90;;;;;;4933900;29;20421;-79
2021/08/19 06:59:34;;;;;;;6.33;5.93;;;17.70;99.90;;;;;;4936052;29;20710;-79
2021/08/19 07:02:01;;;;;;;5.80;5.50;;;17.70;99.90;;;;;;4944545;29;20249;-80
2021/08/19 07:04:28;;;;;;;4.13;3.93;;;17.70;99.90;;;;;;4941772;29;20294;-80
2021/08/19 07:06:55;;;;;;;2.50;2.30;;;17.70;99.90;;;;;;4934745;28;20621;-79
2021/08/19 07:09:22;;;;;;;2.10;2.00;;;17.80;99.90;;;;;;4934425;29;20207;-79
2021/08/19 07:11:50;;;;;;;4.43;4.13;;;17.80;99.90;;;;;;4944547;29;20723;-79
2021/08/19 07:14:17;;;;;;;4.50;4.20;;;17.80;99.90;;;;;;4936149;29;20591;-80
2021/08/19 07:16:44;;;;;;;5.37;5.07;;;17.90;99.90;;;;;;4931749;28;20363;-79
2021/08/19 07:19:11;;;;;;;5.10;4.80;;;18.00;99.90;;;;;;4929979;29;20671;-78
2021/08/19 07:21:40;;;;;;;4.50;4.20;;;18.00;99.90;;;;;;4933541;29;20230;-78
2021/08/19 07:24:07;;;;;;;7.00;6.60;;;18.10;99.90;;;;;;4940900;29;20276;-79
2021/08/19 07:26:34;;;;;;;2.37;2.27;;;18.20;99.90;;;;;;4936520;29;20267;-79
2021/08/19 07:29:02;;;;;;;2.30;2.10;;;18.30;99.90;;;;;;4940673;29;20754;-79
2021/08/19 07:31:29;;;;;;;2.20;2.10;;;18.30;99.90;;;;;;4937297;29;20286;-78
2021/08/19 07:33:56;;;;;;;2.50;2.20;;;18.40;99.90;;;;;;4937660;29;20241;-78
2021/08/19 07:36:23;;;;;;;2.20;2.10;;;18.50;99.90;;;;;;4938642;29;20206;-79
2021/08/19 07:38:49;;;;;;;5.80;5.30;;;18.60;99.90;;;;;;4941568;28;20276;-78
2021/08/19 07:41:16;;;;;;;5.93;5.53;;;18.60;99.90;;;;;;4935544;29;20223;-79
2021/08/19 07:43:43;;;;;;;5.90;5.50;;;18.60;99.90;;;;;;4940178;29;20195;-79
2021/08/19 07:46:12;;;;;;;8.33;7.80;;;18.70;99.90;;;;;;4942728;29;20195;-79
2021/08/19 07:48:40;;;;;;;5.70;5.40;;;18.80;99.90;;;;;;4941431;29;20248;-79
2021/08/19 07:51:07;;;;;;;6.67;6.27;;;18.90;99.90;;;;;;4941491;28;20325;-79
2021/08/19 07:53:34;;;;;;;6.87;6.47;;;19.00;99.90;;;;;;4939404;29;20213;-80
2021/08/19 07:56:01;;;;;;;7.10;6.63;;;19.10;99.90;;;;;;4933475;29;20207;-80
2021/08/19 07:58:28;;;;;;;8.90;8.30;;;19.20;99.90;;;;;;4932999;29;20202;-80
2021/08/19 08:00:56;;;;;;;7.77;7.30;;;19.30;99.90;;;;;;4934146;29;20234;-80
2021/08/19 08:03:24;;;;;;;4.20;3.40;;;19.30;99.90;;;;;;4929623;29;20211;-81
2021/08/19 08:05:51;;;;;;;2.60;2.40;;;19.50;99.90;;;;;;4933065;29;20301;-79
2021/08/19 08:08:17;;;;;;;6.77;6.43;;;19.60;99.90;;;;;;4926687;29;20208;-80
2021/08/19 08:10:44;;;;;;;6.87;6.47;;;19.80;99.90;;;;;;4927228;29;20218;-79
2021/08/19 08:13:13;;;;;;;6.60;6.20;;;19.90;99.90;;;;;;4942942;28;20695;-79
2021/08/19 08:15:41;;;;;;;4.30;3.90;;;20.00;99.90;;;;;;4945694;28;20210;-80
2021/08/19 08:18:12;;;;;;;5.00;4.70;;;20.00;99.90;;;;;;4928194;29;20571;-80
2021/08/19 08:20:41;;;;;;;2.83;2.63;;;20.10;99.90;;;;;;4939309;29;20289;-80
2021/08/19 08:23:08;;;;;;;2.70;2.50;;;20.20;99.90;;;;;;4944645;29;20204;-79
2021/08/19 08:25:35;;;;;;;3.80;3.50;;;20.40;99.90;;;;;;4939708;28;20711;-80
2021/08/19 08:28:05;;;;;;;5.30;4.90;;;20.60;99.90;;;;;;4941467;29;20207;-78
2021/08/19 08:30:33;;;;;;;7.60;7.10;;;20.80;99.90;;;;;;4941071;28;20226;-78
2021/08/19 08:33:00;;;;;;;2.20;2.10;;;21.10;99.90;;;;;;4939086;28;20218;-80
2021/08/19 08:35:28;;;;;;;2.73;2.53;;;21.50;99.90;;;;;;4935393;29;20718;-81
2021/08/19 08:37:57;;;;;;;4.43;4.20;;;21.80;99.90;;;;;;4935882;29;20203;-81
2021/08/19 08:40:24;;;;;;;6.10;5.60;;;22.20;99.90;;;;;;4936843;29;20763;-80
2021/08/19 08:42:52;;;;;;;6.13;5.57;;;22.30;99.90;;;;;;4944451;29;20199;-80
2021/08/19 08:45:19;;;;;;;9.23;8.43;;;22.40;99.90;;;;;;4935296;29;20571;-80
2021/08/19 08:47:47;;;;;;;4.67;4.37;;;22.60;99.90;;;;;;4936222;29;20200;-80
2021/08/19 08:50:14;;;;;;;4.13;3.93;;;22.90;99.90;;;;;;4935415;29;20543;-79
2021/08/19 08:52:41;;;;;;;5.60;5.27;;;23.00;99.90;;;;;;4933067;29;20197;-82
2021/08/19 08:55:11;;;;;;;2.20;2.10;;;23.10;99.90;;;;;;4933083;29;20272;-79
2021/08/19 08:57:38;;;;;;;2.40;1.80;;;23.20;99.90;;;;;;4921664;29;20629;-82
2021/08/19 09:00:08;;;;;;;2.80;2.60;;;23.60;99.90;;;;;;4943058;29;20215;-81
2021/08/19 09:02:36;;;;;;;6.90;6.50;;;23.90;99.90;;;;;;4929541;29;20232;-82
2021/08/19 09:05:19;;;;;;;9.10;8.50;;;24.20;99.90;;;;;;4943886;29;20218;-82
2021/08/19 09:07:54;;;;;;;8.70;8.20;;;24.30;99.90;;;;;;4939112;29;20207;-82
2021/08/19 09:10:27;;;;;;;8.50;8.00;;;24.50;99.90;;;;;;4946618;29;20227;-78
2021/08/19 09:12:54;;;;;;;8.73;8.00;;;24.40;99.90;;;;;;4949106;29;20258;-84
2021/08/19 09:15:23;;;;;;;8.73;8.23;;;24.30;99.90;;;;;;4936181;29;20225;-82
2021/08/19 09:17:52;;;;;;;8.53;7.93;;;24.30;99.90;;;;;;4941246;29;20203;-83
2021/08/19 09:20:21;;;;;;;7.73;7.33;;;24.00;99.90;;;;;;4939516;28;20266;-86
2021/08/19 09:22:52;;;;;;;3.63;3.33;;;24.00;99.90;;;;;;4946156;28;20206;-85
2021/08/19 09:25:31;;;;;;;5.60;5.20;;;23.80;99.90;;;;;;4938821;29;20223;-85
2021/08/19 09:28:20;;;;;;;5.80;5.40;;;23.80;99.90;;;;;;4937144;29;20234;-83
2021/08/19 09:30:49;;;;;;;2.00;1.90;;;24.30;99.90;;;;;;4944968;28;20257;-83
2021/08/19 09:33:18;;;;;;;2.47;2.27;;;24.50;99.90;;;;;;4941499;29;20207;-83
2021/08/19 09:35:46;;;;;;;6.20;5.80;;;24.50;99.90;;;;;;4943109;28;20198;-84
2021/08/19 09:38:15;;;;;;;4.17;3.87;;;24.40;99.90;;;;;;4938265;29;20440;-83
2021/08/19 09:40:44;;;;;;;2.30;2.10;;;24.80;99.90;;;;;;4943312;28;20230;-83
2021/08/19 09:43:13;;;;;;;5.30;4.93;;;25.10;99.90;;;;;;4936742;29;20635;-83
2021/08/19 09:45:45;;;;;;;3.77;3.50;;;25.00;99.90;;;;;;4936900;28;20317;-84
2021/08/19 09:48:14;;;;;;;2.57;2.37;;;24.80;99.90;;;;;;4942645;29;20209;-83
2021/08/19 09:50:42;;;;;;;2.40;2.20;;;24.60;99.90;;;;;;4939810;28;20237;-85
2021/08/19 09:53:24;;;;;;;3.23;2.30;;;24.60;99.90;;;;;;4951797;29;20302;-83
2021/08/19 09:55:53;;;;;;;7.13;6.67;;;24.70;99.90;;;;;;4935630;29;20294;-83
2021/08/19 09:58:32;;;;;;;2.40;2.20;;;24.70;99.90;;;;;;4944913;29;20236;-83
2021/08/19 10:00:59;;;;;;;2.63;2.43;;;24.40;99.90;;;;;;4930406;29;20227;-83
2021/08/19 10:03:27;;;;;;;3.83;3.60;;;24.30;99.90;;;;;;4944276;29;20237;-83
2021/08/19 10:05:55;;;;;;;3.07;2.87;;;24.10;99.90;;;;;;4936132;28;20314;-83
2021/08/19 10:08:22;;;;;;;2.47;2.27;;;24.00;99.90;;;;;;4937870;29;20660;-83
2021/08/19 10:10:55;;;;;;;6.73;6.33;;;24.00;99.90;;;;;;4942912;29;20719;-83
2021/08/19 10:13:22;;;;;;;2.30;2.10;;;23.80;99.90;;;;;;4941792;29;20201;-83
2021/08/19 10:15:50;;;;;;;4.90;4.60;;;23.80;99.90;;;;;;4940073;28;20684;-83
2021/08/19 10:18:21;;;;;;;2.50;2.30;;;23.80;99.90;;;;;;4936327;28;20222;-82
2021/08/19 10:20:55;;;;;;;4.13;3.90;;;23.90;99.90;;;;;;4936374;28;20269;-83
2021/08/19 10:23:24;;;;;;;5.07;4.67;;;24.00;99.90;;;;;;4942551;29;20214;-83
2021/08/19 10:26:06;;;;;;;7.50;7.10;;;23.90;99.90;;;;;;4934925;29;20670;-83
2021/08/19 10:28:48;;;;;;;7.20;6.80;;;24.00;99.90;;;;;;4933896;29;20215;-83
2021/08/19 10:31:44;;;;;;;7.43;7.03;;;23.90;99.90;;;;;;4944570;29;20234;-83
2021/08/19 10:34:12;;;;;;;7.27;6.80;;;24.00;99.90;;;;;;4928853;29;20254;-83
2021/08/19 10:36:53;;;;;;;7.33;6.83;;;24.00;99.90;;;;;;4940849;29;20215;-83
2021/08/19 10:39:42;;;;;;;7.03;6.53;;;24.20;99.90;;;;;;4937976;29;20214;-83
2021/08/19 10:42:12;;;;;;;6.70;6.30;;;24.20;99.90;;;;;;4938434;29;20219;-84
2021/08/19 10:44:44;;;;;;;6.60;6.20;;;24.30;99.90;;;;;;4941268;29;20564;-83
2021/08/19 10:47:31;;;;;;;2.60;2.40;;;24.60;99.90;;;;;;4928807;29;20623;-83
2021/08/19 10:50:21;;;;;;;6.33;5.93;;;24.80;99.90;;;;;;4936870;29;20213;-84
2021/08/19 10:52:48;;;;;;;5.93;5.63;;;25.10;99.90;;;;;;4934254;29;20262;-83
2021/08/19 10:55:19;;;;;;;2.47;2.27;;;24.90;99.90;;;;;;4940543;29;20206;-83
2021/08/19 10:57:57;;;;;;;2.53;2.33;;;25.00;99.90;;;;;;4931847;28;20202;-83
2021/08/19 11:00:41;;;;;;;7.90;7.30;;;25.00;99.90;;;;;;4944072;29;20219;-83
2021/08/19 11:03:10;;;;;;;8.67;8.17;;;24.70;99.90;;;;;;4943678;28;20226;-85
2021/08/19 11:06:04;;;;;;;7.53;7.10;;;24.30;99.90;;;;;;4944631;29;20215;-83
2021/08/19 11:08:46;;;;;;;7.40;6.87;;;23.80;99.90;;;;;;4904735;29;20623;-84
2021/08/19 11:11:15;;;;;;;7.40;7.00;;;23.50;99.90;;;;;;4932264;29;20222;-83
2021/08/19 11:13:43;;;;;;;7.50;7.10;;;23.30;99.90;;;;;;4937240;28;20202;-83
2021/08/19 11:16:13;;;;;;;7.50;7.10;;;23.10;99.90;;;;;;4941436;29;20206;-84
2021/08/19 11:18:41;;;;;;;7.80;7.30;;;23.00;99.90;;;;;;4943305;29;20235;-84
2021/08/19 11:21:10;;;;;;;7.80;7.40;;;23.10;99.90;;;;;;4944242;29;20223;-84
2021/08/19 11:23:39;;;;;;;7.97;7.47;;;23.10;99.90;;;;;;4937874;29;20203;-83
2021/08/19 11:26:08;;;;;;;7.63;7.20;;;23.20;99.90;;;;;;4940303;29;20731;-83
2021/08/19 11:28:38;;;;;;;4.40;4.13;;;23.40;99.90;;;;;;4939237;29;20209;-83
2021/08/19 11:31:19;;;;;;;4.60;4.30;;;23.50;99.90;;;;;;4938050;29;20225;-84
2021/08/19 11:33:47;;;;;;;5.10;4.70;;;23.70;99.90;;;;;;4936945;28;20294;-83
2021/08/19 11:36:15;;;;;;;5.57;5.23;;;23.70;99.90;;;;;;4940868;29;20268;-83
2021/08/19 11:38:43;;;;;;;5.33;5.03;;;23.70;99.90;;;;;;4935228;29;20207;-83
2021/08/19 11:41:20;;;;;;;5.10;4.80;;;23.70;99.90;;;;;;4950733;29;20230;-81
2021/08/19 11:43:49;;;;;;;5.30;5.00;;;24.00;99.90;;;;;;4938668;29;20245;-82
2021/08/19 11:46:23;;;;;;;5.63;5.30;;;23.90;99.90;;;;;;4941021;28;20204;-82
2021/08/19 11:48:52;;;;;;;5.23;4.93;;;23.80;99.90;;;;;;4934370;29;20261;-82
2021/08/19 11:51:28;;;;;;;5.50;5.20;;;23.90;99.90;;;;;;4936499;29;20767;-80
2021/08/19 11:57:53;;;;;;;2.50;2.40;;;24.00;99.90;;;;;;4934814;29;20279;-81
2021/08/19 12:00:20;;;;;;;2.80;2.60;;;24.10;99.90;;;;;;4949610;28;20226;-79
2021/08/19 12:02:59;;;;;;;2.70;2.60;;;24.10;99.90;;;;;;4934448;29;20202;-84
2021/08/19 12:05:26;;;;;;;3.00;2.70;;;24.30;99.90;;;;;;4949901;28;20313;-82
2021/08/19 12:07:53;;;;;;;3.00;2.80;;;24.20;99.90;;;;;;4943244;29;20230;-83
2021/08/19 12:10:20;;;;;;;4.70;4.40;;;24.30;99.90;;;;;;4939071;29;20219;-83
2021/08/19 12:12:47;;;;;;;4.80;4.50;;;24.20;99.90;;;;;;4942449;29;20633;-82
2021/08/19 12:15:15;;;;;;;4.80;4.50;;;24.40;99.90;;;;;;4937172;29;20267;-81
2021/08/19 12:17:42;;;;;;;4.90;4.60;;;24.40;99.90;;;;;;4942946;28;20224;-82
2021/08/19 12:20:13;;;;;;;5.17;4.80;;;24.40;99.90;;;;;;4944424;29;20218;-84
2021/08/19 12:22:41;;;;;;;4.97;4.67;;;24.50;99.90;;;;;;4951825;28;20203;-82
2021/08/19 12:25:19;;;;;;;4.50;4.30;;;24.60;99.90;;;;;;4933601;29;20566;-83
2021/08/19 12:28:05;;;;;;;5.17;4.80;;;24.60;99.90;;;;;;4951586;29;20199;-87
2021/08/19 12:30:54;;;;;;;4.90;4.60;;;24.70;99.90;;;;;;4933238;29;20242;-85
2021/08/19 12:33:40;;;;;;;4.50;4.23;;;24.80;99.90;;;;;;4933163;29;20200;-85
2021/08/19 12:36:33;;;;;;;1.90;1.70;;;24.90;99.90;;;;;;4934197;29;20195;-86
2021/08/19 12:39:21;;;;;;;2.30;2.17;;;24.90;99.90;;;;;;4933618;29;20438;-86
2021/08/19 12:42:09;;;;;;;2.50;1.97;;;24.80;99.90;;;;;;4935459;29;20715;-86
2021/08/19 12:44:42;;;;;;;2.97;2.10;;;24.90;99.90;;;;;;4936498;29;20197;-85
2021/08/19 12:47:14;;;;;;;2.53;2.03;;;25.00;99.90;;;;;;4936784;29;20709;-87
2021/08/19 12:49:44;;;;;;;2.40;2.20;;;24.90;99.90;;;;;;4931365;29;20665;-86
2021/08/19 12:52:18;;;;;;;2.10;2.00;;;25.10;99.90;;;;;;4944291;29;20234;-86
2021/08/19 12:55:07;;;;;;;6.53;6.03;;;25.30;99.90;;;;;;4926977;29;20198;-84
2021/08/19 12:57:37;;;;;;;2.20;2.10;;;25.50;99.90;;;;;;4926785;29;20284;-84
2021/08/19 13:00:09;;;;;;;2.00;1.90;;;25.30;99.90;;;;;;4929167;29;20203;-84
2021/08/19 13:02:36;;;;;;;1.90;1.80;;;25.10;99.90;;;;;;4942188;29;20199;-83